createdAt,value
2022-12-13T00:01:51.990Z,43.47
2022-12-13T00:04:20.240Z,44.60
2022-12-13T00:06:47.170Z,43.70
2022-12-13T00:09:18.315Z,46.87
2022-12-13T00:11:45.233Z,44.70
2022-12-13T00:14:14.217Z,45.63
2022-12-13T00:16:41.491Z,46.43
2022-12-13T00:19:08.093Z,43.93
2022-12-13T00:21:34.671Z,48.17
2022-12-13T00:24:01.574Z,48.37
2022-12-13T00:26:30.765Z,44.47
2022-12-13T00:29:00.477Z,50.47
2022-12-13T00:31:56.817Z,46.03
2022-12-13T00:34:14.472Z,47.60
2022-12-13T00:36:41.052Z,45.77
2022-12-13T00:39:07.747Z,46.40
2022-12-13T00:41:36.366Z,47.00
2022-12-13T00:44:05.127Z,46.97
2022-12-13T00:46:32.508Z,44.33
2022-12-13T00:49:01.223Z,47.33
2022-12-13T00:51:30.253Z,43.47
2022-12-13T00:53:57.881Z,50.17
2022-12-13T00:56:27.638Z,45.73
2022-12-13T00:58:55.244Z,44.00
2022-12-13T01:01:24.689Z,47.53
2022-12-13T01:03:53.839Z,41.67
2022-12-13T01:06:23.640Z,46.57
2022-12-13T01:08:50.261Z,41.60
2022-12-13T01:11:17.493Z,47.93
2022-12-13T01:13:44.694Z,49.93
2022-12-13T01:16:13.103Z,44.90
2022-12-13T01:18:40.615Z,46.87
2022-12-13T01:21:11.054Z,42.63
2022-12-13T01:23:38.060Z,49.93
2022-12-13T01:26:06.714Z,44.33
2022-12-13T01:28:33.698Z,46.63
2022-12-13T01:31:03.294Z,53.83
2022-12-13T01:33:31.192Z,47.20
2022-12-13T01:36:01.096Z,52.53
2022-12-13T01:38:27.622Z,45.80
2022-12-13T01:40:58.998Z,54.23
2022-12-13T01:43:25.794Z,51.20
2022-12-13T01:45:52.805Z,52.90
2022-12-13T01:48:28.169Z,48.97
2022-12-13T01:51:02.309Z,52.07
2022-12-13T01:53:32.389Z,49.63
2022-12-13T01:56:05.568Z,50.50
2022-12-13T01:58:33.022Z,57.40
2022-12-13T02:01:00.328Z,54.23
2022-12-13T02:03:27.276Z,55.37
2022-12-13T02:06:03.263Z,57.23
2022-12-13T02:08:30.075Z,50.27
2022-12-13T02:10:58.065Z,52.67
2022-12-13T02:13:25.174Z,52.13
2022-12-13T02:16:22.127Z,48.23
2022-12-13T02:19:18.728Z,57.43
2022-12-13T02:22:03.823Z,50.93
2022-12-13T02:24:33.224Z,54.33
2022-12-13T02:27:33.252Z,48.47
2022-12-13T02:30:30.551Z,50.30
2022-12-13T02:33:21.473Z,52.70
2022-12-13T02:35:57.378Z,51.17
2022-12-13T02:38:36.548Z,57.17
2022-12-13T02:41:09.910Z,55.43
2022-12-13T02:43:47.772Z,49.13
2022-12-13T02:46:20.647Z,52.97
2022-12-13T02:48:51.093Z,50.97
2022-12-13T02:51:19.669Z,57.90
2022-12-13T02:53:46.806Z,53.90
2022-12-13T02:56:13.644Z,57.97
2022-12-13T02:58:47.843Z,71.27
2022-12-13T03:01:27.810Z,68.17
2022-12-13T03:04:17.249Z,61.17
2022-12-13T03:06:52.623Z,63.03
2022-12-13T03:09:31.124Z,65.73
2022-12-13T03:12:33.143Z,57.37
2022-12-13T03:15:03.245Z,66.97
2022-12-13T03:17:34.775Z,60.97
2022-12-13T03:20:02.918Z,61.00
2022-12-13T03:22:39.285Z,64.83
2022-12-13T03:25:06.267Z,67.37
2022-12-13T03:27:32.850Z,66.47
2022-12-13T03:30:00.287Z,59.70
2022-12-13T03:32:26.917Z,62.50
2022-12-13T03:35:00.616Z,61.80
2022-12-13T03:37:27.843Z,60.17
2022-12-13T03:39:54.703Z,60.43
2022-12-13T03:42:21.317Z,61.43
2022-12-13T03:44:47.842Z,69.70
2022-12-13T03:47:14.410Z,58.63
2022-12-13T03:49:40.923Z,62.43
2022-12-13T03:52:07.421Z,62.40
2022-12-13T03:54:33.987Z,56.13
2022-12-13T03:57:01.394Z,64.13
2022-12-13T03:59:27.928Z,58.33
2022-12-13T04:01:54.476Z,61.37
2022-12-13T04:04:21.070Z,57.70
2022-12-13T04:06:47.600Z,53.87
2022-12-13T04:09:14.123Z,54.77
2022-12-13T04:11:59.233Z,59.27
2022-12-13T04:14:25.892Z,53.50
2022-12-13T04:16:52.529Z,55.83
2022-12-13T04:19:23.835Z,56.00
2022-12-13T04:21:56.887Z,58.13
2022-12-13T04:24:31.818Z,50.03
2022-12-13T04:26:59.567Z,50.80
2022-12-13T04:29:27.719Z,50.43
2022-12-13T04:32:01.322Z,59.10
2022-12-13T04:34:30.676Z,53.77
2022-12-13T04:37:01.716Z,56.40
2022-12-13T04:39:28.235Z,52.77
2022-12-13T04:42:01.448Z,54.67
2022-12-13T04:44:31.447Z,54.93
2022-12-13T04:47:02.739Z,54.23
2022-12-13T04:49:30.358Z,55.47
2022-12-13T04:52:01.329Z,54.33
2022-12-13T04:54:28.857Z,54.10
2022-12-13T04:57:04.081Z,53.67
2022-12-13T04:59:30.605Z,55.73
2022-12-13T05:01:57.170Z,48.63
2022-12-13T05:04:28.957Z,47.47
2022-12-13T05:06:58.932Z,53.97
2022-12-13T05:09:25.545Z,55.97
2022-12-13T05:11:52.080Z,52.93
2022-12-13T05:14:28.055Z,52.47
2022-12-13T05:16:54.630Z,56.47
2022-12-13T05:19:21.275Z,56.10
2022-12-13T05:21:57.393Z,49.73
2022-12-13T05:24:29.364Z,57.10
2022-12-13T05:26:55.887Z,54.57
2022-12-13T05:29:22.390Z,57.13
2022-12-13T05:31:48.972Z,54.90
2022-12-13T05:34:15.732Z,52.00
2022-12-13T05:36:42.288Z,56.67
2022-12-13T05:39:28.479Z,50.10
2022-12-13T05:42:01.719Z,50.73
2022-12-13T05:44:29.800Z,55.23
2022-12-13T05:46:56.287Z,53.77
2022-12-13T05:49:22.782Z,53.63
2022-12-13T05:51:49.833Z,54.67
2022-12-13T05:54:16.373Z,55.53
2022-12-13T05:56:42.983Z,49.23
2022-12-13T05:59:09.482Z,55.00
2022-12-13T06:01:36.020Z,60.03
2022-12-13T06:04:10.402Z,52.43
2022-12-13T06:06:36.917Z,53.60
2022-12-13T06:09:03.949Z,60.27
2022-12-13T06:11:31.928Z,60.27
2022-12-13T06:14:00.759Z,58.67
2022-12-13T06:16:27.853Z,55.43
2022-12-13T06:19:03.240Z,61.97
2022-12-13T06:21:41.401Z,56.37
2022-12-13T06:24:12.842Z,55.53
2022-12-13T06:26:39.397Z,62.47
2022-12-13T06:29:05.885Z,62.57
2022-12-13T06:31:32.787Z,54.83
2022-12-13T06:34:13.788Z,58.33
2022-12-13T06:36:42.326Z,60.43
2022-12-13T06:39:08.858Z,62.57
2022-12-13T06:41:36.478Z,61.90
2022-12-13T06:44:03.143Z,63.67
2022-12-13T06:46:29.733Z,58.03
2022-12-13T06:48:56.757Z,61.20
2022-12-13T06:51:23.324Z,52.43
2022-12-13T06:54:00.905Z,63.10
2022-12-13T06:56:28.079Z,60.40
2022-12-13T06:59:01.510Z,57.70
2022-12-13T07:01:37.119Z,58.00
2022-12-13T07:04:04.602Z,63.17
2022-12-13T07:06:31.169Z,63.57
2022-12-13T07:08:58.536Z,62.00
2022-12-13T07:11:28.293Z,61.80
2022-12-13T07:13:55.611Z,58.63
2022-12-13T07:16:23.058Z,58.27
2022-12-13T07:19:01.347Z,61.40
2022-12-13T07:21:29.039Z,68.47
2022-12-13T07:23:55.695Z,58.73
2022-12-13T07:26:22.460Z,62.70
2022-12-13T07:28:54.720Z,61.23
2022-12-13T07:31:21.846Z,65.37
2022-12-13T07:33:48.898Z,59.23
2022-12-13T07:36:18.898Z,63.60
2022-12-13T07:38:50.229Z,67.57
2022-12-13T07:41:23.472Z,59.97
2022-12-13T07:43:55.052Z,59.43
2022-12-13T07:46:32.928Z,58.50
2022-12-13T07:49:03.094Z,66.40
2022-12-13T07:51:29.828Z,63.57
2022-12-13T07:53:57.290Z,60.23
2022-12-13T07:56:23.795Z,57.77
2022-12-13T07:58:50.335Z,62.67
2022-12-13T08:01:17.441Z,67.57
2022-12-13T08:03:44.024Z,56.77
2022-12-13T08:06:12.918Z,61.20
2022-12-13T08:08:39.855Z,58.70
2022-12-13T08:11:11.929Z,65.20
2022-12-13T08:13:39.363Z,62.17
2022-12-13T08:16:26.362Z,58.83
2022-12-13T08:19:03.283Z,61.60
2022-12-13T08:24:23.944Z,59.90
2022-12-13T08:26:50.494Z,60.90
2022-12-13T08:29:22.851Z,53.90
2022-12-13T08:32:01.812Z,61.47
2022-12-13T08:34:28.600Z,59.10
2022-12-13T08:37:01.524Z,52.13
2022-12-13T08:39:30.509Z,57.73
2022-12-13T08:42:14.847Z,53.03
2022-12-13T08:44:42.670Z,61.20
2022-12-13T08:47:09.568Z,54.90
2022-12-13T08:49:36.100Z,50.30
2022-12-13T08:52:02.632Z,50.53
2022-12-13T08:54:31.353Z,52.40
2022-12-13T08:56:58.308Z,50.90
2022-12-13T08:59:26.125Z,56.20
2022-12-13T09:01:53.690Z,50.67
2022-12-13T09:04:31.520Z,56.87
2022-12-13T09:06:58.385Z,54.37
2022-12-13T09:09:29.407Z,49.57
2022-12-13T09:11:59.643Z,50.40
2022-12-13T09:14:34.012Z,55.17
2022-12-13T09:17:03.321Z,47.90
2022-12-13T09:19:37.263Z,51.10
2022-12-13T09:22:04.861Z,52.27
2022-12-13T09:24:36.714Z,49.37
2022-12-13T09:27:09.641Z,49.97
2022-12-13T09:29:36.971Z,51.43
2022-12-13T09:32:03.696Z,54.60
2022-12-13T09:34:30.317Z,49.43
2022-12-13T09:37:01.445Z,50.47
2022-12-13T09:39:29.171Z,50.07
2022-12-13T09:42:00.669Z,47.57
2022-12-13T09:44:43.774Z,50.30
2022-12-13T09:47:22.744Z,50.77
2022-12-13T09:49:52.658Z,49.10
2022-12-13T09:52:23.408Z,55.03
2022-12-13T09:54:55.854Z,47.90
2022-12-13T09:57:32.046Z,49.30
2022-12-13T10:00:02.593Z,52.13
2022-12-13T10:02:32.329Z,46.10
2022-12-13T10:05:39.518Z,45.83
2022-12-13T10:08:15.357Z,45.30
2022-12-13T10:10:43.727Z,48.10
2022-12-13T10:13:27.341Z,47.17
2022-12-13T10:16:09.118Z,47.57
2022-12-13T10:18:38.115Z,50.90
2022-12-13T10:21:10.594Z,48.83
2022-12-13T10:23:59.817Z,44.33
2022-12-13T10:26:25.179Z,44.77
2022-12-13T10:29:03.078Z,48.07
2022-12-13T10:31:29.681Z,43.83
2022-12-13T10:33:57.523Z,49.77
2022-12-13T10:36:35.826Z,46.60
2022-12-13T10:39:03.313Z,45.23
2022-12-13T10:41:34.970Z,42.97
2022-12-13T10:44:22.943Z,43.97
2022-12-13T10:47:02.617Z,44.50
2022-12-13T10:49:47.438Z,42.73
2022-12-13T10:52:31.914Z,41.33
2022-12-13T10:55:04.583Z,47.17
2022-12-13T10:57:55.377Z,42.73
2022-12-13T11:00:45.052Z,45.40
2022-12-13T11:03:32.938Z,45.80
2022-12-13T11:06:18.074Z,46.83
2022-12-13T11:08:44.616Z,44.47
2022-12-13T11:11:12.481Z,48.00
2022-12-13T11:13:44.862Z,47.77
2022-12-13T11:16:23.228Z,47.57
2022-12-13T11:18:53.941Z,49.03
2022-12-13T11:21:32.702Z,48.90
2022-12-13T11:24:03.458Z,49.60
2022-12-13T11:26:33.940Z,52.70
2022-12-13T11:29:29.777Z,50.80
2022-12-13T11:32:22.477Z,51.83
2022-12-13T11:35:11.464Z,51.23
2022-12-13T11:37:49.909Z,53.47
2022-12-13T11:40:46.116Z,53.50
2022-12-13T11:43:34.419Z,56.90
2022-12-13T11:46:14.490Z,58.17
2022-12-13T11:48:50.985Z,56.17
2022-12-13T11:51:26.697Z,53.07
2022-12-13T11:54:03.136Z,56.53
2022-12-13T11:56:42.056Z,55.13
2022-12-13T11:59:23.813Z,58.10
2022-12-13T12:02:05.054Z,53.03
2022-12-13T12:04:37.982Z,56.57
2022-12-13T12:07:32.805Z,56.80
2022-12-13T12:10:22.531Z,59.70
2022-12-13T12:12:55.528Z,56.30
2022-12-13T12:15:41.759Z,57.07
2022-12-13T12:18:16.619Z,56.07
2022-12-13T12:21:06.025Z,58.27
2022-12-13T12:23:52.857Z,52.43
2022-12-13T12:26:27.193Z,53.53
2022-12-13T12:29:24.175Z,56.00
2022-12-13T12:32:09.193Z,57.67
2022-12-13T12:34:41.681Z,55.23
2022-12-13T12:37:30.000Z,53.63
2022-12-13T12:40:08.663Z,57.97
2022-12-13T12:43:13.794Z,54.87
2022-12-13T12:45:58.886Z,55.37
2022-12-13T12:49:03.298Z,54.43
2022-12-13T12:52:04.643Z,56.10
2022-12-13T12:55:08.936Z,54.53
2022-12-13T12:57:39.543Z,51.70
2022-12-13T13:00:16.019Z,59.43
2022-12-13T13:03:23.261Z,55.73
2022-12-13T13:06:33.140Z,54.97
2022-12-13T13:09:05.377Z,59.27
2022-12-13T13:11:43.226Z,55.10
2022-12-13T13:14:36.507Z,55.97
2022-12-13T13:17:26.146Z,55.67
2022-12-13T13:20:15.923Z,60.80
2022-12-13T13:22:44.419Z,53.87
2022-12-13T13:25:29.402Z,55.27
2022-12-13T13:28:14.869Z,59.77
2022-12-13T13:31:00.397Z,63.47
2022-12-13T13:33:50.426Z,56.40
2022-12-13T13:36:38.614Z,62.83
2022-12-13T13:39:05.167Z,60.87
2022-12-13T13:42:16.939Z,56.57
2022-12-13T13:44:45.970Z,59.17
2022-12-13T13:47:24.213Z,63.40
2022-12-13T13:50:28.551Z,62.00
2022-12-13T13:53:01.604Z,58.67
2022-12-13T13:55:33.867Z,62.63
2022-12-13T13:58:37.969Z,62.17
2022-12-13T14:01:23.175Z,61.27
2022-12-13T14:04:08.341Z,61.40
2022-12-13T14:07:01.058Z,69.43
2022-12-13T14:10:07.560Z,71.43
2022-12-13T14:13:11.876Z,65.60
2022-12-13T14:16:06.737Z,70.37
2022-12-13T14:19:01.241Z,69.93
2022-12-13T14:22:01.891Z,72.53
2022-12-13T14:24:28.426Z,73.37
2022-12-13T14:27:25.301Z,72.43
2022-12-13T14:29:58.083Z,72.00
2022-12-13T14:32:28.020Z,69.30
2022-12-13T14:34:56.403Z,81.17
2022-12-13T14:37:33.141Z,75.30
2022-12-13T14:40:01.127Z,63.20
2022-12-13T14:42:35.833Z,71.17
2022-12-13T14:45:21.954Z,73.50
2022-12-13T14:47:48.654Z,70.03
2022-12-13T14:50:18.117Z,69.53
2022-12-13T14:52:46.431Z,72.10
2022-12-13T14:55:30.458Z,71.57
2022-12-13T14:57:58.709Z,69.60
2022-12-13T15:00:35.403Z,72.73
2022-12-13T15:03:04.098Z,71.47
2022-12-13T15:05:38.494Z,66.40
2022-12-13T15:08:10.619Z,69.07
2022-12-13T15:10:48.642Z,69.00
2022-12-13T15:13:39.067Z,67.37
2022-12-13T15:16:25.678Z,71.70
2022-12-13T15:19:30.855Z,68.23
2022-12-13T15:22:05.327Z,67.47
2022-12-13T15:24:38.533Z,76.53
2022-12-13T15:27:05.649Z,77.07
2022-12-13T15:29:38.472Z,73.33
2022-12-13T15:32:12.447Z,76.10
2022-12-13T15:34:39.003Z,68.57
2022-12-13T15:37:28.135Z,75.83
2022-12-13T15:39:59.144Z,69.83
2022-12-13T15:42:31.807Z,68.03
2022-12-13T15:45:05.222Z,73.37
2022-12-13T15:47:32.518Z,73.40
2022-12-13T15:50:06.076Z,71.20
2022-12-13T15:52:39.805Z,73.50
2022-12-13T15:55:09.231Z,76.33
2022-12-13T15:57:51.882Z,74.30
2022-12-13T16:00:18.758Z,71.07
2022-12-13T16:02:58.720Z,76.80
2022-12-13T16:05:37.102Z,72.73
2022-12-13T16:08:13.823Z,78.07
2022-12-13T16:10:47.628Z,79.47
2022-12-13T16:13:26.200Z,74.17
2022-12-13T16:15:59.840Z,80.47
2022-12-13T16:18:45.069Z,88.17
2022-12-13T16:21:11.724Z,80.53
2022-12-13T16:23:38.215Z,79.40
2022-12-13T16:26:08.898Z,84.57
2022-12-13T16:28:36.072Z,84.67
2022-12-13T16:31:14.208Z,86.87
2022-12-13T16:33:40.743Z,81.00
2022-12-13T16:36:09.663Z,86.73
2022-12-13T16:38:37.378Z,81.33
2022-12-13T16:41:08.832Z,88.43
2022-12-13T16:43:51.644Z,90.23
2022-12-13T16:47:12.459Z,86.17
2022-12-13T16:49:18.465Z,89.50
2022-12-13T16:51:48.493Z,83.37
2022-12-13T16:54:15.624Z,84.30
2022-12-13T16:56:42.238Z,85.37
2022-12-13T16:59:13.815Z,87.03
2022-12-13T17:01:40.839Z,92.87
2022-12-13T17:04:16.351Z,84.83
2022-12-13T17:06:46.069Z,87.77
2022-12-13T17:09:12.642Z,90.13
2022-12-13T17:11:39.181Z,84.87
2022-12-13T17:14:05.905Z,85.13
2022-12-13T17:16:32.815Z,91.13
2022-12-13T17:18:59.676Z,94.00
2022-12-13T17:21:27.191Z,99.23
2022-12-13T17:23:57.913Z,90.40
2022-12-13T17:26:24.833Z,83.67
2022-12-13T17:28:51.532Z,87.10
2022-12-13T17:31:19.302Z,86.50
2022-12-13T17:33:46.013Z,83.37
2022-12-13T17:36:14.463Z,83.70
2022-12-13T17:38:48.215Z,88.60
2022-12-13T17:41:16.111Z,81.27
2022-12-13T17:43:43.408Z,84.70
2022-12-13T17:46:15.932Z,91.10
2022-12-13T17:48:42.983Z,83.53
2022-12-13T17:51:11.243Z,83.13
2022-12-13T17:53:42.748Z,86.13
2022-12-13T17:56:15.105Z,80.87
2022-12-13T17:58:42.382Z,85.17
2022-12-13T18:01:28.427Z,83.63
2022-12-13T18:03:57.008Z,79.57
2022-12-13T18:06:27.203Z,83.13
2022-12-13T18:08:54.192Z,82.67
2022-12-13T18:11:33.097Z,80.57
2022-12-13T18:14:01.403Z,84.17
2022-12-13T18:16:35.946Z,77.13
2022-12-13T18:19:08.951Z,79.33
2022-12-13T18:21:36.912Z,81.40
2022-12-13T18:24:05.320Z,75.67
2022-12-13T18:26:32.247Z,87.47
2022-12-13T18:28:58.775Z,86.43
2022-12-13T18:31:25.420Z,82.97
2022-12-13T18:33:53.970Z,77.23
2022-12-13T18:36:23.104Z,80.87
2022-12-13T18:38:49.902Z,85.13
2022-12-13T18:41:19.377Z,86.20
2022-12-13T18:43:46.318Z,77.77
2022-12-13T18:46:14.151Z,71.57
2022-12-13T18:48:41.153Z,72.97
2022-12-13T18:51:09.729Z,74.53
2022-12-13T18:53:37.796Z,73.00
2022-12-13T18:56:16.071Z,70.50
2022-12-13T18:58:44.712Z,73.77
2022-12-13T19:01:13.144Z,67.20
2022-12-13T19:03:40.104Z,72.73
2022-12-13T19:06:07.566Z,66.90
2022-12-13T19:08:36.583Z,75.90
2022-12-13T19:11:03.621Z,69.10
2022-12-13T19:13:32.277Z,70.47
2022-12-13T19:16:06.583Z,70.77
2022-12-13T19:18:33.751Z,71.17
2022-12-13T19:21:00.548Z,67.80
2022-12-13T19:23:27.423Z,69.27
2022-12-13T19:25:54.178Z,71.43
2022-12-13T19:28:20.727Z,79.70
2022-12-13T19:30:48.126Z,79.20
2022-12-13T19:33:15.327Z,65.90
2022-12-13T19:35:45.197Z,74.77
2022-12-13T19:38:12.366Z,63.13
2022-12-13T19:40:40.405Z,71.50
2022-12-13T19:43:07.024Z,63.87
2022-12-13T19:45:34.015Z,63.97
2022-12-13T19:48:00.592Z,65.40
2022-12-13T19:50:28.671Z,66.77
2022-12-13T19:52:55.349Z,63.70
2022-12-13T19:55:22.006Z,64.47
2022-12-13T19:57:48.688Z,72.93
2022-12-13T20:00:15.678Z,60.23
2022-12-13T20:02:42.348Z,62.97
2022-12-13T20:05:09.379Z,65.87
2022-12-13T20:07:35.972Z,63.13
2022-12-13T20:10:03.693Z,58.83
2022-12-13T20:12:31.419Z,57.40
2022-12-13T20:15:02.695Z,58.67
2022-12-13T20:17:29.568Z,61.70
2022-12-13T20:19:56.114Z,69.13
2022-12-13T20:22:22.790Z,70.90
2022-12-13T20:24:49.326Z,72.63
2022-12-13T20:27:15.875Z,63.67
2022-12-13T20:29:42.413Z,64.83
2022-12-13T20:32:14.955Z,60.20
2022-12-13T20:34:41.449Z,56.97
2022-12-13T20:37:07.959Z,62.57
2022-12-13T20:39:34.959Z,57.73
2022-12-13T20:42:01.458Z,56.73
2022-12-13T20:44:28.022Z,60.43
2022-12-13T20:46:54.631Z,63.30
2022-12-13T20:49:21.324Z,60.07
2022-12-13T20:51:47.882Z,60.17
2022-12-13T20:54:14.461Z,57.03
2022-12-13T20:56:41.011Z,56.33
2022-12-13T20:59:10.836Z,56.13
2022-12-13T21:01:38.790Z,53.30
2022-12-13T21:04:07.377Z,54.03
2022-12-13T21:06:36.470Z,56.00
2022-12-13T21:09:04.640Z,54.27
2022-12-13T21:11:36.019Z,61.00
2022-12-13T21:14:21.840Z,61.10
2022-12-13T21:16:54.496Z,67.23
2022-12-13T21:19:26.178Z,56.37
2022-12-13T21:21:54.011Z,56.27
2022-12-13T21:24:23.329Z,55.33
2022-12-13T21:26:51.216Z,53.63
2022-12-13T21:29:18.127Z,51.67
2022-12-13T21:31:48.654Z,56.63
2022-12-13T21:34:16.616Z,53.03
2022-12-13T21:36:44.751Z,53.90
2022-12-13T21:39:14.241Z,57.33
2022-12-13T21:41:41.740Z,50.63
2022-12-13T21:44:11.469Z,52.30
2022-12-13T21:49:24.503Z,49.33
2022-12-13T21:51:51.112Z,53.73
2022-12-13T21:54:17.952Z,53.77
2022-12-13T21:57:02.749Z,53.30
2022-12-13T21:59:29.339Z,52.03
2022-12-13T22:02:21.949Z,51.93
2022-12-13T22:04:51.647Z,47.97
2022-12-13T22:07:29.510Z,52.40
2022-12-13T22:09:56.939Z,50.67
2022-12-13T22:12:34.591Z,50.10
2022-12-13T22:15:02.296Z,52.93
2022-12-13T22:17:35.324Z,53.50
2022-12-13T22:20:04.007Z,51.53
2022-12-13T22:22:30.681Z,52.63
2022-12-13T22:24:57.345Z,49.57
2022-12-13T22:27:25.186Z,52.63
2022-12-13T22:29:57.551Z,53.30
2022-12-13T22:32:29.726Z,52.60
2022-12-13T22:34:56.995Z,52.90
2022-12-13T22:37:24.779Z,50.63
2022-12-13T22:39:51.483Z,55.77
2022-12-13T22:42:18.441Z,50.63
2022-12-13T22:44:44.999Z,50.87
2022-12-13T22:47:11.503Z,49.50
2022-12-13T22:49:38.078Z,54.07
2022-12-13T22:52:05.608Z,49.63
2022-12-13T22:54:32.183Z,49.53
2022-12-13T22:56:58.768Z,52.03
2022-12-13T22:59:25.321Z,49.53
2022-12-13T23:01:55.361Z,52.10
2022-12-13T23:04:26.513Z,48.33
2022-12-13T23:06:53.530Z,47.70
2022-12-13T23:09:20.131Z,50.13
2022-12-13T23:12:05.265Z,48.23
2022-12-13T23:14:34.310Z,46.23
2022-12-13T23:17:02.342Z,46.77
2022-12-13T23:19:49.514Z,46.43
2022-12-13T23:22:17.489Z,45.03
2022-12-13T23:24:43.992Z,45.77
2022-12-13T23:27:10.676Z,47.33
2022-12-13T23:29:37.193Z,49.17
2022-12-13T23:32:04.589Z,46.60
2022-12-13T23:34:31.210Z,46.83
2022-12-13T23:36:57.743Z,50.47
2022-12-13T23:39:24.286Z,47.50
2022-12-13T23:41:50.887Z,39.20
2022-12-13T23:44:17.801Z,48.90
2022-12-13T23:46:48.136Z,46.53
2022-12-13T23:49:15.529Z,42.33
2022-12-13T23:51:42.170Z,49.87
2022-12-13T23:54:09.825Z,44.50
2022-12-13T23:56:36.367Z,47.57
2022-12-13T23:59:02.863Z,45.93
